sensor_id;sensor_type;location;lat;lon;timestamp;pressure;altitude;pressure_sealevel;temperature;humidity
45888;BME280;31595;51.418;7.572;2022-11-04T00:01:57;98820.06;;;11.96;88.36
45888;BME280;31595;51.418;7.572;2022-11-04T00:04:25;98812.34;;;11.89;86.57
45888;BME280;31595;51.418;7.572;2022-11-04T00:06:55;98822.72;;;11.89;85.83
45888;BME280;31595;51.418;7.572;2022-11-04T00:09:23;98826.03;;;11.78;85.11
45888;BME280;31595;51.418;7.572;2022-11-04T00:11:51;98832.41;;;11.79;84.48
45888;BME280;31595;51.418;7.572;2022-11-04T00:14:36;98836.28;;;11.74;83.99
45888;BME280;31595;51.418;7.572;2022-11-04T00:17:04;98849.06;;;11.75;83.46
45888;BME280;31595;51.418;7.572;2022-11-04T00:19:49;98849.34;;;11.70;82.89
45888;BME280;31595;51.418;7.572;2022-11-04T00:22:35;98852.25;;;11.58;82.41
45888;BME280;31595;51.418;7.572;2022-11-04T00:25:19;98857.06;;;11.61;82.13
45888;BME280;31595;51.418;7.572;2022-11-04T00:28:06;98873.81;;;11.61;82.03
45888;BME280;31595;51.418;7.572;2022-11-04T00:30:54;98878.97;;;11.59;81.64
45888;BME280;31595;51.418;7.572;2022-11-04T00:33:44;98892.19;;;11.62;81.68
45888;BME280;31595;51.418;7.572;2022-11-04T00:36:13;98889.69;;;11.57;81.67
45888;BME280;31595;51.418;7.572;2022-11-04T00:38:45;98898.84;;;11.57;80.86
45888;BME280;31595;51.418;7.572;2022-11-04T00:41:13;98877.63;;;11.53;81.13
45888;BME280;31595;51.418;7.572;2022-11-04T00:43:52;98881.31;;;11.57;80.96
45888;BME280;31595;51.418;7.572;2022-11-04T00:46:22;98900.09;;;11.60;80.99
45888;BME280;31595;51.418;7.572;2022-11-04T00:48:49;98888.22;;;11.63;80.70
45888;BME280;31595;51.418;7.572;2022-11-04T00:51:19;98881.75;;;11.59;80.05
45888;BME280;31595;51.418;7.572;2022-11-04T00:53:51;98894.53;;;11.60;79.73
45888;BME280;31595;51.418;7.572;2022-11-04T00:56:18;98892.19;;;11.62;79.55
45888;BME280;31595;51.418;7.572;2022-11-04T00:58:46;98906.66;;;11.52;79.24
45888;BME280;31595;51.418;7.572;2022-11-04T01:01:15;98918.78;;;11.44;78.86
45888;BME280;31595;51.418;7.572;2022-11-04T01:03:46;98902.16;;;11.47;78.06
45888;BME280;31595;51.418;7.572;2022-11-04T01:06:17;98912.97;;;11.49;78.78
45888;BME280;31595;51.418;7.572;2022-11-04T01:08:45;98923.03;;;11.53;79.27
45888;BME280;31595;51.418;7.572;2022-11-04T01:11:14;98929.94;;;11.44;78.53
45888;BME280;31595;51.418;7.572;2022-11-04T01:13:42;98938.59;;;11.38;77.77
45888;BME280;31595;51.418;7.572;2022-11-04T01:16:10;98942.97;;;11.40;77.72
45888;BME280;31595;51.418;7.572;2022-11-04T01:18:39;98942.97;;;11.40;77.97
45888;BME280;31595;51.418;7.572;2022-11-04T01:21:09;98943.16;;;11.31;77.08
45888;BME280;31595;51.418;7.572;2022-11-04T01:23:36;98943.50;;;11.29;77.07
45888;BME280;31595;51.418;7.572;2022-11-04T01:26:04;98937.69;;;11.34;76.46
45888;BME280;31595;51.418;7.572;2022-11-04T01:28:35;98941.59;;;11.17;76.49
45888;BME280;31595;51.418;7.572;2022-11-04T01:31:04;98955.47;;;11.30;77.02
45888;BME280;31595;51.418;7.572;2022-11-04T01:33:34;98950.88;;;11.37;77.51
45888;BME280;31595;51.418;7.572;2022-11-04T01:36:02;98956.47;;;11.37;77.10
45888;BME280;31595;51.418;7.572;2022-11-04T01:38:30;98964.59;;;11.43;76.64
45888;BME280;31595;51.418;7.572;2022-11-04T01:40:57;98965.38;;;11.43;77.09
45888;BME280;31595;51.418;7.572;2022-11-04T01:43:43;98967.19;;;11.51;76.98
45888;BME280;31595;51.418;7.572;2022-11-04T01:46:14;98973.84;;;11.47;76.67
45888;BME280;31595;51.418;7.572;2022-11-04T01:48:45;98966.84;;;11.53;76.48
45888;BME280;31595;51.418;7.572;2022-11-04T01:51:13;98966.56;;;11.58;76.72
45888;BME280;31595;51.418;7.572;2022-11-04T01:53:45;98969.31;;;11.42;75.95
45888;BME280;31595;51.418;7.572;2022-11-04T01:56:16;98966.09;;;11.40;76.27
45888;BME280;31595;51.418;7.572;2022-11-04T01:58:48;98977.56;;;11.51;76.86
45888;BME280;31595;51.418;7.572;2022-11-04T02:01:18;98978.47;;;11.55;76.33
45888;BME280;31595;51.418;7.572;2022-11-04T02:03:48;98975.97;;;11.37;75.48
45888;BME280;31595;51.418;7.572;2022-11-04T02:06:18;98980.13;;;11.44;75.52
45888;BME280;31595;51.418;7.572;2022-11-04T02:08:47;98979.66;;;11.42;75.92
45888;BME280;31595;51.418;7.572;2022-11-04T02:11:16;98964.97;;;11.57;76.44
45888;BME280;31595;51.418;7.572;2022-11-04T02:14:01;98973.69;;;11.55;75.50
45888;BME280;31595;51.418;7.572;2022-11-04T02:16:36;98980.63;;;11.62;76.02
45888;BME280;31595;51.418;7.572;2022-11-04T02:19:18;98981.69;;;11.57;75.56
45888;BME280;31595;51.418;7.572;2022-11-04T02:22:06;98982.97;;;11.60;75.92
45888;BME280;31595;51.418;7.572;2022-11-04T02:25:00;98978.47;;;11.55;75.25
45888;BME280;31595;51.418;7.572;2022-11-04T02:27:39;98974.44;;;11.40;74.70
45888;BME280;31595;51.418;7.572;2022-11-04T02:30:12;98966.09;;;11.40;75.69
45888;BME280;31595;51.418;7.572;2022-11-04T02:33:02;98965.84;;;11.45;76.03
45888;BME280;31595;51.418;7.572;2022-11-04T02:35:39;98965.91;;;11.33;75.07
45888;BME280;31595;51.418;7.572;2022-11-04T02:38:14;98964.81;;;11.37;75.78
45888;BME280;31595;51.418;7.572;2022-11-04T02:40:53;98948.81;;;11.34;75.53
45888;BME280;31595;51.418;7.572;2022-11-04T02:43:33;98947.13;;;11.30;75.61
45888;BME280;31595;51.418;7.572;2022-11-04T02:46:07;98955.16;;;11.19;75.97
45888;BME280;31595;51.418;7.572;2022-11-04T02:48:45;98949.13;;;11.17;75.46
45888;BME280;31595;51.418;7.572;2022-11-04T02:51:17;98949.75;;;11.10;75.89
45888;BME280;31595;51.418;7.572;2022-11-04T02:53:49;98958.03;;;11.07;75.54
45888;BME280;31595;51.418;7.572;2022-11-04T02:56:20;98966.28;;;11.03;75.95
45888;BME280;31595;51.418;7.572;2022-11-04T02:58:53;98962.00;;;10.93;76.54
45888;BME280;31595;51.418;7.572;2022-11-04T03:01:29;98978.72;;;10.93;76.16
45888;BME280;31595;51.418;7.572;2022-11-04T03:04:05;98972.00;;;10.94;75.28
45888;BME280;31595;51.418;7.572;2022-11-04T03:06:35;98976.50;;;10.99;75.71
45888;BME280;31595;51.418;7.572;2022-11-04T03:09:04;98985.47;;;10.92;76.02
45888;BME280;31595;51.418;7.572;2022-11-04T03:11:32;98981.78;;;10.88;75.85
45888;BME280;31595;51.418;7.572;2022-11-04T03:14:03;98978.53;;;10.86;75.62
45888;BME280;31595;51.418;7.572;2022-11-04T03:16:36;98976.88;;;10.85;75.62
45888;BME280;31595;51.418;7.572;2022-11-04T03:19:10;98991.28;;;10.87;75.52
45888;BME280;31595;51.418;7.572;2022-11-04T03:21:43;98986.63;;;10.91;75.98
45888;BME280;31595;51.418;7.572;2022-11-04T03:24:17;98998.81;;;10.87;75.63
45888;BME280;31595;51.418;7.572;2022-11-04T03:26:51;98988.94;;;10.89;76.31
45888;BME280;31595;51.418;7.572;2022-11-04T03:29:28;98998.81;;;10.87;75.64
45888;BME280;31595;51.418;7.572;2022-11-04T03:32:05;98985.25;;;10.85;75.58
45888;BME280;31595;51.418;7.572;2022-11-04T03:34:36;98990.25;;;10.92;75.57
45888;BME280;31595;51.418;7.572;2022-11-04T03:37:03;98986.72;;;10.95;74.82
45888;BME280;31595;51.418;7.572;2022-11-04T03:39:31;98999.84;;;10.94;74.79
45888;BME280;31595;51.418;7.572;2022-11-04T03:42:01;98999.56;;;10.84;74.76
45888;BME280;31595;51.418;7.572;2022-11-04T03:44:46;98994.66;;;10.81;75.36
45888;BME280;31595;51.418;7.572;2022-11-04T03:47:18;99000.38;;;10.72;75.15
45888;BME280;31595;51.418;7.572;2022-11-04T03:49:47;99003.63;;;10.74;75.39
45888;BME280;31595;51.418;7.572;2022-11-04T03:52:15;99005.75;;;10.65;75.12
45888;BME280;31595;51.418;7.572;2022-11-04T03:54:43;99005.50;;;10.70;75.27
45888;BME280;31595;51.418;7.572;2022-11-04T03:57:37;99004.34;;;10.71;75.00
45888;BME280;31595;51.418;7.572;2022-11-04T04:00:10;98998.78;;;10.71;75.58
45888;BME280;31595;51.418;7.572;2022-11-04T04:02:46;99009.06;;;10.70;74.98
45888;BME280;31595;51.418;7.572;2022-11-04T04:05:19;99005.22;;;10.75;74.90
45888;BME280;31595;51.418;7.572;2022-11-04T04:07:57;99002.50;;;10.63;75.08
45888;BME280;31595;51.418;7.572;2022-11-04T04:10:34;99005.03;;;10.68;75.51
45888;BME280;31595;51.418;7.572;2022-11-04T04:13:19;99023.47;;;10.60;74.96
45888;BME280;31595;51.418;7.572;2022-11-04T04:15:52;99015.25;;;10.64;74.89
45888;BME280;31595;51.418;7.572;2022-11-04T04:18:28;99019.66;;;10.65;74.86
45888;BME280;31595;51.418;7.572;2022-11-04T04:21:02;99023.13;;;10.62;74.25
45888;BME280;31595;51.418;7.572;2022-11-04T04:23:33;99020.34;;;10.62;74.84
45888;BME280;31595;51.418;7.572;2022-11-04T04:26:20;99021.16;;;10.62;75.10
45888;BME280;31595;51.418;7.572;2022-11-04T04:29:06;99014.19;;;10.56;73.81
45888;BME280;31595;51.418;7.572;2022-11-04T04:31:36;99017.34;;;10.54;74.06
45888;BME280;31595;51.418;7.572;2022-11-04T04:34:21;99016.44;;;10.50;74.24
45888;BME280;31595;51.418;7.572;2022-11-04T04:36:52;99016.19;;;10.43;74.25
45888;BME280;31595;51.418;7.572;2022-11-04T04:39:24;99017.81;;;10.44;74.67
45888;BME280;31595;51.418;7.572;2022-11-04T04:42:15;99031.03;;;10.47;75.19
45888;BME280;31595;51.418;7.572;2022-11-04T04:45:02;99035.00;;;10.34;74.77
45888;BME280;31595;51.418;7.572;2022-11-04T04:47:31;99037.44;;;10.35;73.90
45888;BME280;31595;51.418;7.572;2022-11-04T04:50:02;99040.69;;;10.38;74.88
45888;BME280;31595;51.418;7.572;2022-11-04T04:52:33;99036.03;;;10.42;74.07
45888;BME280;31595;51.418;7.572;2022-11-04T04:55:03;99050.31;;;10.40;75.24
45888;BME280;31595;51.418;7.572;2022-11-04T04:57:31;99049.03;;;10.38;74.53
45888;BME280;31595;51.418;7.572;2022-11-04T04:59:58;99049.72;;;10.34;74.90
45888;BME280;31595;51.418;7.572;2022-11-04T05:02:25;99055.06;;;10.40;74.92
45888;BME280;31595;51.418;7.572;2022-11-04T05:04:55;99050.97;;;10.37;74.55
45888;BME280;31595;51.418;7.572;2022-11-04T05:07:25;99059.00;;;10.39;73.95
45888;BME280;31595;51.418;7.572;2022-11-04T05:09:55;99057.84;;;10.40;74.73
45888;BME280;31595;51.418;7.572;2022-11-04T05:12:24;99067.69;;;10.37;74.59
45888;BME280;31595;51.418;7.572;2022-11-04T05:15:13;99067.59;;;10.33;73.81
45888;BME280;31595;51.418;7.572;2022-11-04T05:17:45;99079.41;;;10.30;73.61
45888;BME280;31595;51.418;7.572;2022-11-04T05:20:28;99085.09;;;10.34;73.48
45888;BME280;31595;51.418;7.572;2022-11-04T05:26:33;99081.59;;;10.25;73.36
45888;BME280;31595;51.418;7.572;2022-11-04T05:34:19;99092.00;;;10.28;73.60
45888;BME280;31595;51.418;7.572;2022-11-04T05:47:12;99101.78;;;10.34;73.42
45888;BME280;31595;51.418;7.572;2022-11-04T05:49:58;99101.91;;;10.38;72.66
45888;BME280;31595;51.418;7.572;2022-11-04T05:52:31;99100.41;;;10.40;73.53
45888;BME280;31595;51.418;7.572;2022-11-04T05:56:30;99092.72;;;10.37;72.58
45888;BME280;31595;51.418;7.572;2022-11-04T06:02:05;99109.44;;;10.62;73.51
45888;BME280;31595;51.418;7.572;2022-11-04T06:04:34;99106.31;;;10.63;73.42
45888;BME280;31595;51.418;7.572;2022-11-04T06:07:05;99110.38;;;10.66;72.62
45888;BME280;31595;51.418;7.572;2022-11-04T06:09:45;99109.78;;;10.72;72.48
45888;BME280;31595;51.418;7.572;2022-11-04T06:12:29;99113.84;;;10.75;72.46
45888;BME280;31595;51.418;7.572;2022-11-04T06:15:15;99112.81;;;10.80;72.51
45888;BME280;31595;51.418;7.572;2022-11-04T06:20:37;99110.59;;;10.85;72.08
45888;BME280;31595;51.418;7.572;2022-11-04T06:21:23;99114.44;;;10.81;71.21
45888;BME280;31595;51.418;7.572;2022-11-04T06:24:40;99120.25;;;10.88;71.77
45888;BME280;31595;51.418;7.572;2022-11-04T06:27:43;99128.34;;;10.93;72.15
45888;BME280;31595;51.418;7.572;2022-11-04T06:33:19;99136.13;;;10.87;70.72
45888;BME280;31595;51.418;7.572;2022-11-04T06:36:07;99144.25;;;10.92;71.69
45888;BME280;31595;51.418;7.572;2022-11-04T06:39:00;99161.56;;;10.86;71.01
45888;BME280;31595;51.418;7.572;2022-11-04T06:45:28;99168.97;;;10.94;71.44
45888;BME280;31595;51.418;7.572;2022-11-04T06:50:45;99163.41;;;10.94;70.24
45888;BME280;31595;51.418;7.572;2022-11-04T06:51:50;99161.66;;;10.89;70.19
45888;BME280;31595;51.418;7.572;2022-11-04T06:54:18;99165.84;;;10.95;69.99
45888;BME280;31595;51.418;7.572;2022-11-04T06:56:46;99165.16;;;10.99;70.26
45888;BME280;31595;51.418;7.572;2022-11-04T06:59:15;99173.72;;;11.06;71.26
45888;BME280;31595;51.418;7.572;2022-11-04T07:01:43;99170.72;;;11.11;72.36
45888;BME280;31595;51.418;7.572;2022-11-04T07:04:12;99172.09;;;11.17;72.32
45888;BME280;31595;51.418;7.572;2022-11-04T07:06:41;99181.81;;;11.23;72.88
45888;BME280;31595;51.418;7.572;2022-11-04T07:09:10;99190.78;;;11.29;73.02
45888;BME280;31595;51.418;7.572;2022-11-04T07:11:38;99181.81;;;11.35;72.26
45888;BME280;31595;51.418;7.572;2022-11-04T07:14:06;99194.34;;;11.42;71.75
45888;BME280;31595;51.418;7.572;2022-11-04T07:16:33;99190.03;;;11.44;72.11
45888;BME280;31595;51.418;7.572;2022-11-04T07:19:01;99197.00;;;11.50;70.92
45888;BME280;31595;51.418;7.572;2022-11-04T07:21:30;99205.25;;;11.59;71.42
45888;BME280;31595;51.418;7.572;2022-11-04T07:23:57;99206.59;;;11.65;70.41
45888;BME280;31595;51.418;7.572;2022-11-04T07:26:25;99217.66;;;11.74;71.15
45888;BME280;31595;51.418;7.572;2022-11-04T07:28:52;99226.78;;;11.87;71.47
45888;BME280;31595;51.418;7.572;2022-11-04T07:31:19;99222.72;;;11.84;69.01
45888;BME280;31595;51.418;7.572;2022-11-04T07:33:47;99219.09;;;11.96;68.67
45888;BME280;31595;51.418;7.572;2022-11-04T07:36:16;99218.41;;;11.99;67.21
45888;BME280;31595;51.418;7.572;2022-11-04T07:38:45;99214.56;;;12.19;67.18
45888;BME280;31595;51.418;7.572;2022-11-04T07:41:13;99210.13;;;12.31;68.27
45888;BME280;31595;51.418;7.572;2022-11-04T07:43:41;99209.06;;;12.51;68.66
45888;BME280;31595;51.418;7.572;2022-11-04T07:46:09;99212.22;;;12.66;68.70
45888;BME280;31595;51.418;7.572;2022-11-04T07:48:37;99221.25;;;12.75;69.15
45888;BME280;31595;51.418;7.572;2022-11-04T07:51:06;99227.13;;;12.86;69.06
45888;BME280;31595;51.418;7.572;2022-11-04T07:53:34;99231.44;;;12.99;69.96
45888;BME280;31595;51.418;7.572;2022-11-04T07:56:16;99220.06;;;13.24;69.61
45888;BME280;31595;51.418;7.572;2022-11-04T07:58:49;99230.63;;;13.30;65.89
45888;BME280;31595;51.418;7.572;2022-11-04T08:01:19;99234.31;;;13.34;64.12
45888;BME280;31595;51.418;7.572;2022-11-04T08:03:50;99229.72;;;13.42;61.80
45888;BME280;31595;51.418;7.572;2022-11-04T08:06:19;99241.53;;;13.35;61.86
45888;BME280;31595;51.418;7.572;2022-11-04T08:08:46;99227.78;;;13.81;61.96
45888;BME280;31595;51.418;7.572;2022-11-04T08:11:17;99228.75;;;13.89;61.64
45888;BME280;31595;51.418;7.572;2022-11-04T08:13:45;99232.50;;;14.16;61.18
45888;BME280;31595;51.418;7.572;2022-11-04T08:16:14;99233.19;;;14.10;59.21
45888;BME280;31595;51.418;7.572;2022-11-04T08:18:42;99234.41;;;14.51;59.16
45888;BME280;31595;51.418;7.572;2022-11-04T08:21:10;99234.38;;;14.71;59.03
45888;BME280;31595;51.418;7.572;2022-11-04T08:23:38;99238.50;;;16.07;54.35
45888;BME280;31595;51.418;7.572;2022-11-04T08:26:08;99228.94;;;17.31;50.25
45888;BME280;31595;51.418;7.572;2022-11-04T08:28:37;99227.28;;;18.94;46.58
45888;BME280;31595;51.418;7.572;2022-11-04T08:31:08;99228.13;;;20.58;43.22
45888;BME280;31595;51.418;7.572;2022-11-04T08:33:36;99222.53;;;21.07;43.79
45888;BME280;31595;51.418;7.572;2022-11-04T08:36:05;99221.09;;;22.13;39.33
45888;BME280;31595;51.418;7.572;2022-11-04T08:38:35;99227.91;;;21.46;42.11
45888;BME280;31595;51.418;7.572;2022-11-04T08:41:05;99236.44;;;20.06;42.77
45888;BME280;31595;51.418;7.572;2022-11-04T08:43:32;99232.72;;;20.27;44.41
45888;BME280;31595;51.418;7.572;2022-11-04T08:46:03;99228.56;;;20.46;42.41
45888;BME280;31595;51.418;7.572;2022-11-04T08:48:35;99228.03;;;19.63;42.73
45888;BME280;31595;51.418;7.572;2022-11-04T08:51:05;99237.84;;;20.50;43.58
45888;BME280;31595;51.418;7.572;2022-11-04T08:53:33;99226.88;;;21.22;40.18
45888;BME280;31595;51.418;7.572;2022-11-04T08:56:08;99216.56;;;22.53;37.56
45888;BME280;31595;51.418;7.572;2022-11-04T08:58:35;99224.13;;;22.63;36.35
45888;BME280;31595;51.418;7.572;2022-11-04T09:01:04;99234.78;;;24.44;35.86
45888;BME280;31595;51.418;7.572;2022-11-04T09:03:33;99236.97;;;25.59;33.59
45888;BME280;31595;51.418;7.572;2022-11-04T09:06:02;99236.59;;;25.73;32.89
45888;BME280;31595;51.418;7.572;2022-11-04T09:08:29;99222.59;;;26.37;31.14
45888;BME280;31595;51.418;7.572;2022-11-04T09:10:57;99214.81;;;28.01;31.12
45888;BME280;31595;51.418;7.572;2022-11-04T09:13:24;99208.81;;;27.38;29.48
45888;BME280;31595;51.418;7.572;2022-11-04T09:15:52;99212.63;;;28.05;28.40
45888;BME280;31595;51.418;7.572;2022-11-04T09:18:21;99212.28;;;28.03;30.37
45888;BME280;31595;51.418;7.572;2022-11-04T09:20:48;99222.91;;;28.68;26.66
45888;BME280;31595;51.418;7.572;2022-11-04T09:23:16;99224.81;;;27.48;29.61
45888;BME280;31595;51.418;7.572;2022-11-04T09:25:43;99237.00;;;28.31;27.88
45888;BME280;31595;51.418;7.572;2022-11-04T09:28:10;99224.44;;;27.72;29.23
45888;BME280;31595;51.418;7.572;2022-11-04T09:30:38;99221.34;;;28.67;27.95
45888;BME280;31595;51.418;7.572;2022-11-04T09:33:05;99208.91;;;28.39;28.57
45888;BME280;31595;51.418;7.572;2022-11-04T09:35:34;99214.31;;;28.37;27.24
45888;BME280;31595;51.418;7.572;2022-11-04T09:38:01;99218.88;;;27.90;27.89
45888;BME280;31595;51.418;7.572;2022-11-04T09:40:29;99219.63;;;28.04;27.41
45888;BME280;31595;51.418;7.572;2022-11-04T09:43:08;99214.59;;;29.24;27.12
45888;BME280;31595;51.418;7.572;2022-11-04T09:45:41;99220.75;;;29.81;26.64
45888;BME280;31595;51.418;7.572;2022-11-04T09:48:23;99234.47;;;30.05;25.08
45888;BME280;31595;51.418;7.572;2022-11-04T09:50:57;99228.66;;;29.40;26.94
45888;BME280;31595;51.418;7.572;2022-11-04T09:53:29;99230.63;;;30.45;24.84
45888;BME280;31595;51.418;7.572;2022-11-04T09:56:02;99222.50;;;30.43;24.66
45888;BME280;31595;51.418;7.572;2022-11-04T09:58:36;99223.94;;;30.39;23.88
45888;BME280;31595;51.418;7.572;2022-11-04T10:01:12;99227.13;;;30.31;24.93
45888;BME280;31595;51.418;7.572;2022-11-04T10:03:47;99232.16;;;29.44;24.83
45888;BME280;31595;51.418;7.572;2022-11-04T10:06:31;99227.16;;;28.86;26.88
45888;BME280;31595;51.418;7.572;2022-11-04T10:09:24;99235.28;;;27.77;27.51
45888;BME280;31595;51.418;7.572;2022-11-04T10:12:03;99231.03;;;26.28;29.03
45888;BME280;31595;51.418;7.572;2022-11-04T10:14:49;99230.41;;;25.45;30.58
45888;BME280;31595;51.418;7.572;2022-11-04T10:17:41;99239.28;;;23.82;31.83
45888;BME280;31595;51.418;7.572;2022-11-04T10:20:23;99245.13;;;23.95;33.24
45888;BME280;31595;51.418;7.572;2022-11-04T10:22:58;99245.25;;;23.17;33.94
45888;BME280;31595;51.418;7.572;2022-11-04T10:25:32;99249.41;;;22.81;34.25
45888;BME280;31595;51.418;7.572;2022-11-04T10:28:09;99257.44;;;21.91;35.98
45888;BME280;31595;51.418;7.572;2022-11-04T10:30:40;99260.94;;;21.60;36.58
45888;BME280;31595;51.418;7.572;2022-11-04T10:33:16;99271.50;;;21.56;37.13
45888;BME280;31595;51.418;7.572;2022-11-04T10:35:47;99270.34;;;21.50;37.79
45888;BME280;31595;51.418;7.572;2022-11-04T10:38:20;99266.13;;;21.69;37.84
45888;BME280;31595;51.418;7.572;2022-11-04T10:40:50;99267.13;;;22.62;36.80
45888;BME280;31595;51.418;7.572;2022-11-04T10:43:26;99261.91;;;23.42;35.48
45888;BME280;31595;51.418;7.572;2022-11-04T10:46:04;99265.03;;;23.71;34.36
45888;BME280;31595;51.418;7.572;2022-11-04T10:48:41;99266.22;;;23.50;34.74
45888;BME280;31595;51.418;7.572;2022-11-04T10:51:11;99270.81;;;23.17;34.72
45888;BME280;31595;51.418;7.572;2022-11-04T10:53:47;99287.84;;;22.89;34.75
45888;BME280;31595;51.418;7.572;2022-11-04T10:56:26;99291.81;;;22.65;34.87
45888;BME280;31595;51.418;7.572;2022-11-04T10:58:59;99293.38;;;22.39;35.62
45888;BME280;31595;51.418;7.572;2022-11-04T11:01:34;99286.84;;;22.42;35.47
45888;BME280;31595;51.418;7.572;2022-11-04T11:04:05;99281.84;;;22.15;36.26
45888;BME280;31595;51.418;7.572;2022-11-04T11:06:35;99283.06;;;22.18;36.25
45888;BME280;31595;51.418;7.572;2022-11-04T11:09:21;99284.75;;;22.12;36.24
45888;BME280;31595;51.418;7.572;2022-11-04T11:11:55;99294.53;;;22.07;36.69
45888;BME280;31595;51.418;7.572;2022-11-04T11:14:33;99305.25;;;21.88;36.54
45888;BME280;31595;51.418;7.572;2022-11-04T11:17:20;99319.81;;;21.42;37.06
45888;BME280;31595;51.418;7.572;2022-11-04T11:19:53;99319.97;;;21.17;38.37
45888;BME280;31595;51.418;7.572;2022-11-04T11:22:34;99313.69;;;20.84;38.39
45888;BME280;31595;51.418;7.572;2022-11-04T11:25:20;99313.75;;;20.70;39.48
45888;BME280;31595;51.418;7.572;2022-11-04T11:27:49;99323.97;;;20.42;39.47
45888;BME280;31595;51.418;7.572;2022-11-04T11:30:23;99305.47;;;20.12;40.68
45888;BME280;31595;51.418;7.572;2022-11-04T11:32:56;99315.59;;;19.99;40.42
45888;BME280;31595;51.418;7.572;2022-11-04T11:35:28;99321.66;;;19.51;40.30
45888;BME280;31595;51.418;7.572;2022-11-04T11:37:57;99324.88;;;19.35;40.54
45888;BME280;31595;51.418;7.572;2022-11-04T11:40:29;99319.22;;;19.24;40.81
45888;BME280;31595;51.418;7.572;2022-11-04T11:42:59;99311.16;;;19.15;41.36
45888;BME280;31595;51.418;7.572;2022-11-04T11:45:29;99321.59;;;18.93;42.60
45888;BME280;31595;51.418;7.572;2022-11-04T11:47:58;99324.75;;;18.77;43.13
45888;BME280;31595;51.418;7.572;2022-11-04T11:50:26;99327.91;;;18.69;42.87
45888;BME280;31595;51.418;7.572;2022-11-04T11:53:14;99328.25;;;18.42;43.66
45888;BME280;31595;51.418;7.572;2022-11-04T11:55:47;99320.13;;;18.37;43.71
45888;BME280;31595;51.418;7.572;2022-11-04T11:58:24;99318.06;;;18.23;43.81
45888;BME280;31595;51.418;7.572;2022-11-04T12:00:57;99324.44;;;18.09;44.89
45888;BME280;31595;51.418;7.572;2022-11-04T12:03:29;99319.91;;;17.97;44.06
45888;BME280;31595;51.418;7.572;2022-11-04T12:06:06;99323.03;;;17.81;45.15
45888;BME280;31595;51.418;7.572;2022-11-04T12:08:57;99321.78;;;17.75;45.76
45888;BME280;31595;51.418;7.572;2022-11-04T12:11:37;99318.50;;;17.66;45.99
45888;BME280;31595;51.418;7.572;2022-11-04T12:14:12;99319.22;;;17.59;45.87
45888;BME280;31595;51.418;7.572;2022-11-04T12:16:50;99314.34;;;17.53;45.93
45888;BME280;31595;51.418;7.572;2022-11-04T12:19:34;99323.94;;;17.44;45.93
45888;BME280;31595;51.418;7.572;2022-11-04T12:22:13;99331.91;;;17.35;46.82
45888;BME280;31595;51.418;7.572;2022-11-04T12:24:49;99333.50;;;17.36;46.70
45888;BME280;31595;51.418;7.572;2022-11-04T12:27:30;99333.06;;;17.31;46.50
45888;BME280;31595;51.418;7.572;2022-11-04T12:30:05;99337.88;;;17.27;47.00
45888;BME280;31595;51.418;7.572;2022-11-04T12:32:41;99344.34;;;17.31;47.53
45888;BME280;31595;51.418;7.572;2022-11-04T12:35:25;99340.25;;;17.28;47.17
45888;BME280;31595;51.418;7.572;2022-11-04T12:38:07;99347.06;;;17.20;47.25
45888;BME280;31595;51.418;7.572;2022-11-04T12:40:44;99345.47;;;17.22;47.23
45888;BME280;31595;51.418;7.572;2022-11-04T12:43:22;99341.75;;;17.15;47.42
45888;BME280;31595;51.418;7.572;2022-11-04T12:45:59;99347.69;;;17.06;47.42
45888;BME280;31595;51.418;7.572;2022-11-04T12:48:56;99354.81;;;16.96;47.84
45888;BME280;31595;51.418;7.572;2022-11-04T12:51:37;99350.31;;;16.88;47.98
45888;BME280;31595;51.418;7.572;2022-11-04T12:54:34;99348.28;;;16.85;48.41
45888;BME280;31595;51.418;7.572;2022-11-04T12:57:13;99352.47;;;16.68;48.67
45888;BME280;31595;51.418;7.572;2022-11-04T13:00:03;99355.28;;;16.68;49.15
45888;BME280;31595;51.418;7.572;2022-11-04T13:02:35;99354.34;;;16.57;49.30
45888;BME280;31595;51.418;7.572;2022-11-04T13:05:08;99351.50;;;16.53;49.75
45888;BME280;31595;51.418;7.572;2022-11-04T13:07:46;99358.72;;;16.54;49.70
45888;BME280;31595;51.418;7.572;2022-11-04T13:10:19;99364.63;;;16.46;50.20
45888;BME280;31595;51.418;7.572;2022-11-04T13:12:50;99356.56;;;16.44;50.81
45888;BME280;31595;51.418;7.572;2022-11-04T13:15:22;99359.06;;;16.49;50.64
45888;BME280;31595;51.418;7.572;2022-11-04T13:17:54;99357.41;;;16.44;50.45
45888;BME280;31595;51.418;7.572;2022-11-04T13:20:31;99359.00;;;16.46;50.62
45888;BME280;31595;51.418;7.572;2022-11-04T13:23:04;99349.00;;;16.48;51.52
45888;BME280;31595;51.418;7.572;2022-11-04T13:25:39;99365.50;;;16.50;50.79
45888;BME280;31595;51.418;7.572;2022-11-04T13:28:11;99369.94;;;16.51;51.68
45888;BME280;31595;51.418;7.572;2022-11-04T13:30:48;99366.78;;;16.56;50.83
45888;BME280;31595;51.418;7.572;2022-11-04T13:33:25;99369.63;;;16.59;51.28
45888;BME280;31595;51.418;7.572;2022-11-04T13:35:58;99379.34;;;16.66;51.15
45888;BME280;31595;51.418;7.572;2022-11-04T13:38:31;99378.53;;;16.65;50.47
45888;BME280;31595;51.418;7.572;2022-11-04T13:41:19;99380.97;;;16.67;50.17
45888;BME280;31595;51.418;7.572;2022-11-04T13:43:53;99387.50;;;16.74;50.24
45888;BME280;31595;51.418;7.572;2022-11-04T13:46:26;99382.81;;;16.82;50.30
45888;BME280;31595;51.418;7.572;2022-11-04T13:49:02;99390.78;;;16.80;50.30
45888;BME280;31595;51.418;7.572;2022-11-04T13:51:37;99395.25;;;16.81;50.12
45888;BME280;31595;51.418;7.572;2022-11-04T13:54:24;99402.78;;;16.77;50.71
45888;BME280;31595;51.418;7.572;2022-11-04T13:57:06;99404.38;;;16.74;50.21
45888;BME280;31595;51.418;7.572;2022-11-04T13:59:37;99403.88;;;16.69;50.58
45888;BME280;31595;51.418;7.572;2022-11-04T14:02:39;99406.63;;;16.61;51.24
45888;BME280;31595;51.418;7.572;2022-11-04T14:08:22;99426.59;;;16.53;51.41
45888;BME280;31595;51.418;7.572;2022-11-04T14:11:16;99426.97;;;16.51;50.94
45888;BME280;31595;51.418;7.572;2022-11-04T14:16:43;99428.81;;;16.40;50.98